Time;durP1;ratioP1;P1;durP2;ratioP2;P2;SDS_P1;SDS_P2;PMS_P1;PMS_P2;Temp;Humidity;BMP_temperature;BMP_pressure;BME280_temperature;BME280_humidity;BME280_pressure;Samples;Min_cycle;Max_cycle;Signal;HPM_P1;HPM_P2
2022/06/17 00:01:00;;;;;;;2.83;2.63;;;19.40;48.40;;;;;;5078139;28;20794;-45
2022/06/17 00:03:27;;;;;;;3.40;3.00;;;19.40;48.30;;;;;;5078012;28;20421;-46
2022/06/17 00:05:55;;;;;;;3.13;2.83;;;19.30;48.20;;;;;;5078081;28;20474;-45
2022/06/17 00:08:24;;;;;;;3.13;2.77;;;19.30;47.90;;;;;;5078357;28;20495;-48
2022/06/17 00:10:50;;;;;;;3.73;3.43;;;19.30;48.70;;;;;;5076548;28;20446;-46
2022/06/17 00:13:18;;;;;;;3.43;3.13;;;19.20;49.30;;;;;;5078016;28;20520;-44
2022/06/17 00:15:45;;;;;;;3.30;3.03;;;19.20;49.80;;;;;;5078132;28;20895;-45
2022/06/17 00:18:14;;;;;;;5.13;2.87;;;19.10;50.00;;;;;;5078156;28;20526;-47
2022/06/17 00:20:40;;;;;;;3.37;3.00;;;19.10;50.30;;;;;;5078759;28;20461;-45
2022/06/17 00:23:14;;;;;;;3.50;3.07;;;19.00;50.10;;;;;;5078635;28;20427;-46
2022/06/17 00:25:41;;;;;;;3.50;2.80;;;19.00;50.30;;;;;;5060963;28;20430;-46
2022/06/17 00:28:12;;;;;;;3.00;2.70;;;19.00;50.20;;;;;;5078404;28;20470;-45
2022/06/17 00:30:37;;;;;;;3.10;2.80;;;19.00;50.40;;;;;;5078862;28;20481;-48
2022/06/17 00:33:03;;;;;;;3.47;3.10;;;19.00;50.50;;;;;;5078619;28;20434;-46
2022/06/17 00:35:38;;;;;;;3.30;2.90;;;19.00;50.40;;;;;;5079081;28;20290;-44
2022/06/17 00:38:04;;;;;;;4.20;3.50;;;18.90;49.90;;;;;;5078209;28;20425;-44
2022/06/17 00:40:33;;;;;;;3.37;3.07;;;18.90;49.90;;;;;;5077253;28;20839;-45
2022/06/17 00:43:06;;;;;;;3.27;2.97;;;18.80;50.50;;;;;;5078390;28;20437;-48
2022/06/17 00:45:36;;;;;;;3.50;3.20;;;18.80;50.80;;;;;;5078404;28;20914;-46
2022/06/17 00:48:05;;;;;;;3.10;2.90;;;18.80;50.90;;;;;;5077164;28;20764;-46
2022/06/17 00:50:37;;;;;;;3.43;3.13;;;18.80;50.80;;;;;;5077314;28;20419;-46
2022/06/17 00:53:12;;;;;;;17.80;3.63;;;18.80;51.00;;;;;;5077259;28;20433;-45
2022/06/17 00:55:59;;;;;;;3.40;3.10;;;18.80;50.80;;;;;;5077983;28;20544;-46
2022/06/17 00:59:00;;;;;;;4.87;3.60;;;18.70;50.70;;;;;;5078007;28;20423;-45
2022/06/17 01:01:28;;;;;;;3.50;2.67;;;18.70;50.50;;;;;;5075101;28;20771;-45
2022/06/17 01:03:57;;;;;;;3.67;3.33;;;18.70;50.70;;;;;;5076296;28;20841;-46
2022/06/17 01:06:26;;;;;;;2.60;2.40;;;18.60;50.50;;;;;;5076755;28;20538;-45
2022/06/17 01:11:42;;;;;;;3.37;3.07;;;18.60;50.30;;;;;;5077156;28;20425;-47
2022/06/17 01:14:10;;;;;;;2.70;2.50;;;18.60;50.10;;;;;;5076245;28;20417;-46
2022/06/17 01:16:37;;;;;;;3.30;3.00;;;18.60;50.30;;;;;;5075894;28;20230;-46
2022/06/17 01:19:29;;;;;;;4.33;2.73;;;18.50;50.40;;;;;;5075961;28;20857;-45
2022/06/17 01:22:26;;;;;;;2.93;2.67;;;18.50;50.60;;;;;;5076991;28;20443;-45
2022/06/17 01:25:16;;;;;;;3.07;2.87;;;18.50;50.10;;;;;;5060620;28;20425;-44
2022/06/17 01:27:49;;;;;;;3.50;2.90;;;18.40;50.60;;;;;;5077564;28;20544;-46
2022/06/17 01:30:27;;;;;;;3.53;2.33;;;18.40;50.60;;;;;;5077494;28;20887;-45
2022/06/17 01:33:00;;;;;;;3.10;2.53;;;18.40;50.70;;;;;;5076121;28;20430;-46
2022/06/17 01:35:46;;;;;;;4.53;2.70;;;18.40;50.60;;;;;;5077667;28;20466;-46
2022/06/17 01:38:12;;;;;;;3.73;3.13;;;18.40;50.60;;;;;;5077737;28;20511;-45
2022/06/17 01:40:38;;;;;;;3.33;3.03;;;18.40;51.10;;;;;;5077482;28;20413;-46
2022/06/17 01:43:08;;;;;;;3.10;2.80;;;18.40;51.40;;;;;;5077441;28;20490;-47
2022/06/17 01:45:36;;;;;;;2.80;2.60;;;18.40;51.60;;;;;;5076605;28;20173;-45
2022/06/17 01:48:02;;;;;;;3.50;2.83;;;18.30;51.90;;;;;;5077532;28;20426;-47
2022/06/17 01:50:28;;;;;;;3.30;3.00;;;18.20;52.10;;;;;;5076790;28;20706;-44
2022/06/17 01:53:02;;;;;;;3.00;2.80;;;18.20;52.50;;;;;;5077601;28;20197;-45
2022/06/17 01:55:34;;;;;;;3.97;3.07;;;18.10;52.90;;;;;;5076678;28;20478;-44
2022/06/17 01:58:07;;;;;;;3.47;3.17;;;18.10;52.90;;;;;;5076694;28;20450;-46
2022/06/17 02:00:33;;;;;;;3.50;3.10;;;18.10;53.00;;;;;;5077590;28;20406;-43
2022/06/17 02:03:10;;;;;;;3.50;3.20;;;18.10;53.20;;;;;;5077085;28;20426;-45
2022/06/17 02:05:37;;;;;;;3.63;3.03;;;18.10;53.10;;;;;;5077761;28;20457;-45
2022/06/17 02:08:04;;;;;;;3.03;2.80;;;18.00;53.20;;;;;;5074932;28;20446;-48
2022/06/17 02:10:33;;;;;;;3.83;2.80;;;18.00;53.10;;;;;;5076124;28;20414;-45
2022/06/17 02:13:01;;;;;;;4.47;3.47;;;18.00;53.40;;;;;;5074777;28;20441;-46
2022/06/17 02:15:27;;;;;;;3.30;3.10;;;18.00;53.50;;;;;;5078519;28;20481;-44
2022/06/17 02:17:54;;;;;;;3.40;3.10;;;18.00;53.60;;;;;;5079859;28;20436;-46
2022/06/17 02:20:21;;;;;;;3.67;3.37;;;17.90;53.60;;;;;;5097202;28;20446;-47
2022/06/17 02:22:47;;;;;;;3.50;3.20;;;17.90;53.70;;;;;;5101032;28;20438;-46
2022/06/17 02:25:25;;;;;;;3.90;3.47;;;17.90;53.80;;;;;;5101010;28;20407;-45
2022/06/17 02:27:54;;;;;;;3.47;3.17;;;17.90;54.00;;;;;;5100223;28;20474;-46
2022/06/17 02:30:19;;;;;;;3.80;3.50;;;17.90;54.00;;;;;;5100703;28;20564;-45
2022/06/17 02:32:46;;;;;;;3.70;3.40;;;17.90;54.00;;;;;;5101373;28;20511;-45
2022/06/17 02:35:27;;;;;;;2.97;2.73;;;17.90;53.80;;;;;;5100112;28;20244;-45
2022/06/17 02:37:53;;;;;;;4.03;3.57;;;17.80;53.90;;;;;;5101310;28;20667;-46
2022/06/17 02:40:40;;;;;;;3.77;3.47;;;17.80;54.20;;;;;;5100262;28;20488;-46
2022/06/17 02:43:13;;;;;;;3.73;3.40;;;17.70;54.50;;;;;;5101002;28;20530;-45
2022/06/17 02:45:42;;;;;;;3.00;2.70;;;17.70;54.70;;;;;;5100246;28;20485;-44
2022/06/17 02:48:28;;;;;;;4.97;3.30;;;17.70;55.00;;;;;;5100829;28;20836;-44
2022/06/17 02:50:57;;;;;;;3.27;2.97;;;17.70;55.40;;;;;;5080391;28;20428;-44
2022/06/17 02:53:35;;;;;;;2.83;2.63;;;17.60;55.50;;;;;;5080898;28;20429;-46
2022/06/17 02:56:07;;;;;;;5.27;3.37;;;17.60;55.90;;;;;;5080536;28;20962;-46
2022/06/17 02:59:05;;;;;;;3.93;3.63;;;17.60;56.20;;;;;;5082612;28;20415;-44
2022/06/17 03:01:35;;;;;;;3.20;2.90;;;17.60;56.30;;;;;;5099816;28;20453;-45
2022/06/17 03:04:11;;;;;;;2.77;2.57;;;17.60;56.40;;;;;;5100497;28;20841;-44
2022/06/17 03:06:38;;;;;;;3.70;3.00;;;17.60;56.60;;;;;;5097631;28;20440;-44
2022/06/17 03:09:19;;;;;;;3.73;3.43;;;17.60;56.70;;;;;;5099212;28;20411;-46
2022/06/17 03:11:56;;;;;;;2.97;2.73;;;17.60;56.80;;;;;;5097756;28;20429;-46
2022/06/17 03:14:23;;;;;;;3.10;2.57;;;17.60;57.00;;;;;;5098309;28;20415;-48
2022/06/17 03:16:52;;;;;;;2.83;2.60;;;17.60;57.00;;;;;;5098377;28;20842;-46
2022/06/17 03:19:18;;;;;;;2.70;2.50;;;17.50;56.40;;;;;;5096743;28;20424;-47
2022/06/17 03:21:44;;;;;;;3.87;2.80;;;17.50;56.40;;;;;;5099176;28;20432;-44
2022/06/17 03:24:21;;;;;;;3.70;3.40;;;17.50;56.40;;;;;;5099446;28;20171;-46
2022/06/17 03:27:04;;;;;;;2.70;2.50;;;17.50;56.80;;;;;;5097747;28;20852;-46
2022/06/17 03:29:31;;;;;;;3.07;2.77;;;17.50;57.30;;;;;;5097574;28;20423;-47
2022/06/17 03:32:02;;;;;;;7.10;3.20;;;17.50;57.50;;;;;;5098260;28;20428;-44
2022/06/17 03:34:34;;;;;;;3.83;2.87;;;17.50;57.50;;;;;;5097693;28;20886;-45
2022/06/17 03:37:17;;;;;;;4.13;3.80;;;17.50;57.60;;;;;;5098915;28;20471;-45
2022/06/17 03:39:50;;;;;;;4.10;3.80;;;17.50;57.70;;;;;;5099052;28;20423;-44
2022/06/17 03:42:16;;;;;;;3.07;2.77;;;17.50;57.90;;;;;;5097796;28;20534;-45
2022/06/17 03:44:59;;;;;;;3.40;3.10;;;17.50;57.80;;;;;;5098680;28;20420;-45
2022/06/17 03:47:29;;;;;;;3.60;3.30;;;17.50;57.30;;;;;;5074951;28;20673;-45
2022/06/17 03:50:05;;;;;;;3.67;3.37;;;17.50;57.80;;;;;;5090620;28;20423;-44
2022/06/17 03:52:41;;;;;;;5.20;3.57;;;17.30;58.30;;;;;;5095849;28;20752;-45
2022/06/17 03:55:18;;;;;;;3.43;3.17;;;17.40;58.80;;;;;;5095828;28;20538;-45
2022/06/17 03:57:47;;;;;;;3.80;3.50;;;17.40;59.00;;;;;;5095675;28;20488;-45
2022/06/17 04:00:28;;;;;;;4.07;3.70;;;17.40;59.40;;;;;;5096883;28;20713;-47
2022/06/17 04:02:54;;;;;;;3.67;3.37;;;17.50;59.70;;;;;;5096612;28;20424;-46
2022/06/17 04:05:22;;;;;;;3.60;3.30;;;17.50;59.20;;;;;;5096434;28;20434;-46
2022/06/17 04:07:48;;;;;;;4.73;3.23;;;17.50;59.50;;;;;;5096651;28;20444;-46
2022/06/17 04:10:20;;;;;;;3.80;3.50;;;17.50;59.90;;;;;;5097800;28;20411;-47
2022/06/17 04:12:50;;;;;;;5.20;3.33;;;17.40;59.70;;;;;;5094523;28;20550;-46
2022/06/17 04:15:27;;;;;;;3.20;2.90;;;17.40;59.80;;;;;;5095339;28;20408;-48
2022/06/17 04:17:53;;;;;;;3.60;3.30;;;17.30;60.60;;;;;;5095161;28;20590;-46
2022/06/17 04:20:25;;;;;;;4.03;3.63;;;17.40;61.00;;;;;;5077155;28;20417;-44
2022/06/17 04:22:54;;;;;;;3.17;2.97;;;17.50;61.50;;;;;;5093977;28;20855;-46
2022/06/17 04:26:06;;;;;;;3.60;3.17;;;17.50;61.80;;;;;;5094460;28;20501;-46
2022/06/17 04:28:39;;;;;;;4.10;3.50;;;17.60;61.50;;;;;;5096690;28;20514;-49
2022/06/17 04:31:09;;;;;;;4.13;3.73;;;18.10;60.90;;;;;;5095553;28;20455;-46
2022/06/17 04:34:01;;;;;;;4.40;3.20;;;18.40;59.50;;;;;;5095507;28;20403;-49
2022/06/17 04:36:32;;;;;;;4.67;3.67;;;18.60;58.70;;;;;;5086264;28;20906;-49
2022/06/17 04:39:10;;;;;;;3.70;3.40;;;18.80;57.80;;;;;;5095188;28;20420;-46
2022/06/17 04:41:38;;;;;;;4.77;3.70;;;19.00;57.20;;;;;;5095435;28;20422;-50
2022/06/17 04:44:05;;;;;;;5.30;3.20;;;19.20;56.70;;;;;;5094062;28;20431;-46
2022/06/17 04:46:36;;;;;;;3.47;3.17;;;19.20;56.40;;;;;;5095578;28;20436;-48
2022/06/17 04:49:04;;;;;;;4.50;3.27;;;19.20;56.20;;;;;;5078548;28;20750;-48
2022/06/17 04:51:32;;;;;;;4.03;3.63;;;19.20;55.90;;;;;;5094753;28;20431;-45
2022/06/17 04:53:58;;;;;;;3.80;3.50;;;19.20;56.00;;;;;;5094535;28;20456;-47
2022/06/17 04:56:32;;;;;;;4.60;4.23;;;19.30;56.00;;;;;;5095451;28;20513;-47
2022/06/17 04:58:57;;;;;;;3.80;3.33;;;19.30;56.10;;;;;;5096435;28;20419;-46
2022/06/17 05:01:24;;;;;;;3.70;3.40;;;19.30;56.10;;;;;;5095997;28;20434;-48
2022/06/17 05:03:50;;;;;;;4.07;3.67;;;19.30;56.10;;;;;;5093525;28;20172;-48
2022/06/17 05:06:16;;;;;;;3.40;3.10;;;19.20;56.20;;;;;;5095365;28;20684;-49
2022/06/17 05:09:08;;;;;;;3.90;3.60;;;19.10;56.30;;;;;;5095306;28;20414;-45
2022/06/17 05:11:37;;;;;;;4.03;3.63;;;19.20;56.60;;;;;;5094126;28;20194;-47
2022/06/17 05:14:30;;;;;;;4.30;3.90;;;19.20;56.70;;;;;;5095857;28;20670;-49
2022/06/17 05:16:57;;;;;;;4.27;3.70;;;19.20;56.80;;;;;;5095004;28;20870;-49
2022/06/17 05:19:22;;;;;;;4.07;3.70;;;19.20;57.00;;;;;;5094713;28;20485;-46
2022/06/17 05:21:48;;;;;;;4.30;3.90;;;19.20;56.90;;;;;;5096706;28;20422;-46
2022/06/17 05:24:14;;;;;;;4.10;3.80;;;19.30;56.90;;;;;;5094696;28;20523;-47
2022/06/17 05:26:40;;;;;;;4.27;3.73;;;19.40;56.80;;;;;;5093617;28;20177;-47
2022/06/17 05:29:08;;;;;;;3.53;3.17;;;19.50;56.60;;;;;;5092923;28;20226;-48
2022/06/17 05:31:35;;;;;;;5.10;3.90;;;19.60;56.10;;;;;;5091842;28;20235;-47
2022/06/17 05:34:02;;;;;;;4.60;3.40;;;19.70;56.10;;;;;;5092485;28;20566;-46
2022/06/17 05:36:27;;;;;;;3.50;3.20;;;19.80;55.90;;;;;;5092660;28;20468;-48
2022/06/17 05:38:53;;;;;;;3.87;3.53;;;19.90;55.70;;;;;;5094794;28;20418;-47
2022/06/17 05:41:23;;;;;;;4.27;3.40;;;20.00;55.50;;;;;;5094053;28;20173;-47
2022/06/17 05:43:49;;;;;;;4.13;3.70;;;20.20;55.50;;;;;;5094629;28;20488;-46
2022/06/17 05:46:15;;;;;;;3.33;3.03;;;20.30;55.20;;;;;;5095430;28;20779;-47
2022/06/17 05:48:41;;;;;;;3.20;2.90;;;20.50;55.10;;;;;;5095022;28;20830;-49
2022/06/17 05:51:07;;;;;;;3.10;2.80;;;20.60;54.80;;;;;;5093683;28;20418;-46
2022/06/17 05:53:35;;;;;;;3.60;3.30;;;20.70;54.50;;;;;;5094358;28;20683;-48
2022/06/17 05:56:00;;;;;;;6.87;3.70;;;20.80;54.30;;;;;;5094175;28;20205;-47
2022/06/17 05:58:26;;;;;;;6.37;3.40;;;20.90;54.00;;;;;;5093044;28;20665;-50
2022/06/17 06:00:52;;;;;;;7.57;2.87;;;21.00;53.90;;;;;;5091579;28;20212;-49
2022/06/17 06:03:20;;;;;;;3.57;3.27;;;21.20;53.60;;;;;;5092687;28;20175;-48
2022/06/17 06:05:45;;;;;;;3.63;3.17;;;21.30;53.50;;;;;;5091500;28;20170;-46
2022/06/17 06:08:11;;;;;;;3.50;3.20;;;21.40;53.20;;;;;;5090919;28;20452;-49
2022/06/17 06:10:37;;;;;;;4.23;3.30;;;21.50;53.10;;;;;;5091467;28;20178;-49
2022/06/17 06:13:04;;;;;;;4.93;3.40;;;21.60;52.80;;;;;;5091357;28;20183;-50
2022/06/17 06:15:36;;;;;;;3.60;3.20;;;21.70;52.70;;;;;;5094567;28;20260;-53
2022/06/17 06:18:02;;;;;;;3.73;2.87;;;21.90;52.70;;;;;;5096455;28;20438;-49
2022/06/17 06:20:28;;;;;;;3.80;3.50;;;22.00;51.70;;;;;;5095535;28;20417;-49
2022/06/17 06:22:53;;;;;;;4.37;3.97;;;22.10;52.10;;;;;;5095461;28;20427;-50
2022/06/17 06:25:20;;;;;;;4.13;3.40;;;22.10;52.40;;;;;;5093963;28;20172;-47
2022/06/17 06:27:45;;;;;;;4.27;3.20;;;22.20;51.90;;;;;;5095386;28;20199;-49
2022/06/17 06:30:16;;;;;;;3.30;3.00;;;22.40;51.90;;;;;;5095607;28;20500;-47
2022/06/17 06:32:50;;;;;;;3.53;3.23;;;22.60;51.70;;;;;;5095998;28;20434;-52
2022/06/17 06:35:17;;;;;;;3.60;3.30;;;22.70;51.30;;;;;;5095474;28;20414;-48
2022/06/17 06:37:42;;;;;;;3.63;3.33;;;22.70;50.90;;;;;;5095022;28;20436;-48
2022/06/17 06:40:09;;;;;;;3.40;3.10;;;22.80;51.00;;;;;;5094014;28;20408;-47
2022/06/17 06:42:35;;;;;;;3.83;3.43;;;22.90;51.00;;;;;;5093583;28;20181;-47
2022/06/17 06:45:01;;;;;;;3.90;3.30;;;23.00;50.80;;;;;;5094652;28;20492;-48
2022/06/17 06:47:26;;;;;;;4.27;3.67;;;23.20;50.80;;;;;;5093526;28;20334;-49
2022/06/17 06:49:52;;;;;;;3.60;3.30;;;23.40;50.30;;;;;;5090911;28;20201;-48
2022/06/17 06:52:18;;;;;;;4.33;3.20;;;23.50;49.20;;;;;;5092106;28;20244;-47
2022/06/17 06:54:43;;;;;;;17.47;5.57;;;23.60;49.50;;;;;;5092335;28;20211;-48
2022/06/17 06:57:10;;;;;;;3.77;3.43;;;23.70;49.10;;;;;;5074100;28;20227;-46
2022/06/17 06:59:36;;;;;;;4.40;4.00;;;23.70;49.20;;;;;;5088959;28;20249;-48
2022/06/17 07:02:02;;;;;;;3.63;3.30;;;23.80;48.70;;;;;;5090263;28;20462;-48
2022/06/17 07:04:27;;;;;;;4.50;4.10;;;23.90;48.80;;;;;;5094073;28;20454;-50
2022/06/17 07:06:53;;;;;;;4.53;4.20;;;24.10;48.90;;;;;;5094996;28;20585;-48
2022/06/17 07:09:20;;;;;;;3.93;3.20;;;24.00;48.50;;;;;;5095741;28;20174;-48
2022/06/17 07:11:46;;;;;;;3.93;3.63;;;24.00;48.80;;;;;;5094414;28;20187;-47
2022/06/17 07:14:11;;;;;;;3.17;2.90;;;24.10;48.90;;;;;;5096446;28;20422;-46
2022/06/17 07:16:37;;;;;;;5.87;3.67;;;24.20;48.70;;;;;;5097719;28;20210;-49
2022/06/17 07:19:07;;;;;;;7.07;4.73;;;24.30;48.30;;;;;;5097351;28;20516;-48
2022/06/17 07:21:33;;;;;;;4.77;3.77;;;24.40;48.50;;;;;;5097313;28;20422;-46
2022/06/17 07:23:59;;;;;;;4.27;3.87;;;24.40;48.50;;;;;;5097955;28;20791;-46
2022/06/17 07:26:25;;;;;;;4.07;3.77;;;24.50;48.40;;;;;;5098324;28;20513;-47
2022/06/17 07:28:52;;;;;;;5.10;3.90;;;24.50;48.10;;;;;;5098163;28;20213;-50
2022/06/17 07:31:18;;;;;;;4.30;3.90;;;24.50;48.20;;;;;;5097306;28;20531;-47
2022/06/17 07:33:44;;;;;;;6.57;4.07;;;24.40;48.40;;;;;;5097528;28;20406;-41
2022/06/17 07:39:53;;;;;;;3.80;3.50;;;24.50;48.50;;;;;;5096157;28;20535;-39
2022/06/17 07:41:42;;;;;;;3.87;3.57;;;24.20;48.70;;;;;;5097520;28;20839;-41
2022/06/17 07:44:08;;;;;;;4.50;4.20;;;24.20;48.60;;;;;;5097087;28;20427;-42
2022/06/17 07:46:34;;;;;;;5.97;4.40;;;24.20;49.10;;;;;;5098210;28;20250;-43
2022/06/17 07:49:00;;;;;;;5.30;4.30;;;24.20;48.70;;;;;;5097475;28;20166;-44
2022/06/17 07:51:25;;;;;;;3.80;3.50;;;24.30;48.80;;;;;;5096850;28;20445;-43
2022/06/17 07:53:51;;;;;;;4.67;4.17;;;24.40;49.00;;;;;;5098851;28;20180;-39
2022/06/17 07:56:16;;;;;;;5.13;4.20;;;24.40;48.80;;;;;;5097567;28;20211;-40
2022/06/17 07:58:43;;;;;;;4.17;3.77;;;24.70;48.70;;;;;;5097367;28;20419;-40
2022/06/17 08:01:11;;;;;;;3.90;3.60;;;25.00;48.50;;;;;;5097114;28;20646;-41
2022/06/17 08:03:37;;;;;;;4.77;3.90;;;25.50;48.40;;;;;;5095721;28;20424;-43
2022/06/17 08:06:03;;;;;;;4.60;4.10;;;25.90;47.50;;;;;;5093984;28;20437;-41
2022/06/17 08:08:29;;;;;;;3.80;3.60;;;26.10;46.90;;;;;;5094053;28;20743;-39
2022/06/17 08:10:58;;;;;;;4.33;4.03;;;26.10;46.20;;;;;;5095079;28;20451;-39
2022/06/17 08:13:24;;;;;;;4.00;3.73;;;25.90;46.30;;;;;;5094880;28;20427;-39
2022/06/17 08:15:53;;;;;;;4.73;4.33;;;25.60;46.70;;;;;;5096211;28;20496;-40
2022/06/17 08:18:18;;;;;;;6.40;4.57;;;25.90;47.30;;;;;;5095760;28;20495;-41
2022/06/17 08:20:44;;;;;;;6.03;4.77;;;26.30;47.20;;;;;;5096221;28;20406;-39
2022/06/17 08:23:10;;;;;;;4.17;3.77;;;26.70;46.90;;;;;;5093094;28;20576;-41
2022/06/17 08:25:38;;;;;;;9.40;4.53;;;27.00;45.80;;;;;;5093350;28;20414;-41
2022/06/17 08:28:09;;;;;;;42.93;10.90;;;27.30;46.20;;;;;;5093564;28;20422;-39
2022/06/17 08:30:46;;;;;;;7.83;4.30;;;27.50;45.60;;;;;;5094066;28;20469;-41
2022/06/17 08:33:12;;;;;;;4.10;3.80;;;27.80;44.90;;;;;;5094480;28;20441;-40
2022/06/17 08:35:41;;;;;;;3.80;3.40;;;28.00;44.00;;;;;;5096130;28;20868;-41
2022/06/17 08:38:26;;;;;;;4.77;4.30;;;28.00;44.10;;;;;;5094886;28;20532;-40
2022/06/17 08:40:59;;;;;;;4.97;4.50;;;28.10;43.70;;;;;;5095100;28;20667;-39
2022/06/17 08:43:41;;;;;;;4.37;4.00;;;28.10;43.40;;;;;;5095959;28;20515;-39
2022/06/17 08:46:17;;;;;;;5.77;4.17;;;27.60;43.50;;;;;;5075150;28;20460;-38
2022/06/17 08:48:55;;;;;;;4.50;4.10;;;27.30;44.00;;;;;;5075030;28;20801;-39
2022/06/17 08:51:29;;;;;;;4.20;3.80;;;27.50;45.00;;;;;;5073078;28;20813;-38
2022/06/17 08:53:55;;;;;;;4.13;3.83;;;27.90;44.30;;;;;;5073467;28;20407;-39
2022/06/17 08:56:20;;;;;;;4.90;4.10;;;28.10;44.10;;;;;;5075333;28;20529;-43
2022/06/17 08:59:04;;;;;;;4.00;3.70;;;28.10;43.60;;;;;;5074992;28;20236;-39
2022/06/17 09:01:50;;;;;;;5.03;4.47;;;28.10;43.90;;;;;;5074596;28;20269;-39
2022/06/17 09:04:32;;;;;;;4.73;3.90;;;28.00;43.80;;;;;;5073192;28;21002;-39
2022/06/17 09:07:10;;;;;;;4.67;4.27;;;27.90;43.70;;;;;;5075056;28;20825;-41
2022/06/17 09:09:42;;;;;;;4.53;4.00;;;27.70;43.40;;;;;;5075500;28;20419;-42
2022/06/17 09:12:16;;;;;;;4.90;3.90;;;27.60;43.30;;;;;;5076107;28;20423;-41
2022/06/17 09:15:06;;;;;;;4.73;4.23;;;27.40;43.20;;;;;;5074727;28;20454;-41
2022/06/17 09:17:35;;;;;;;5.20;4.40;;;27.70;43.50;;;;;;5076399;28;20799;-40
2022/06/17 09:20:04;;;;;;;6.13;4.00;;;28.00;44.00;;;;;;5074037;28;20419;-40
2022/06/17 09:22:35;;;;;;;5.07;4.67;;;28.10;43.80;;;;;;5072649;28;20502;-39
2022/06/17 09:25:06;;;;;;;4.50;4.20;;;28.10;44.00;;;;;;5072942;28;20420;-39
2022/06/17 09:27:36;;;;;;;9.20;4.30;;;28.20;44.00;;;;;;5075022;28;20420;-41
2022/06/17 09:30:12;;;;;;;5.03;3.80;;;28.50;43.40;;;;;;5073063;28;20456;-41
2022/06/17 09:32:46;;;;;;;4.17;3.77;;;28.70;42.90;;;;;;5076669;28;20528;-41
2022/06/17 09:35:25;;;;;;;4.93;4.00;;;28.70;41.90;;;;;;5075424;28;20411;-40
2022/06/17 09:37:55;;;;;;;4.87;4.47;;;29.00;41.60;;;;;;5073572;28;20431;-41
2022/06/17 09:40:29;;;;;;;4.50;4.07;;;29.50;40.90;;;;;;5073351;28;20419;-41
2022/06/17 09:43:02;;;;;;;4.80;3.90;;;29.60;41.20;;;;;;5075204;28;20685;-40
2022/06/17 09:45:30;;;;;;;5.33;4.60;;;29.90;41.90;;;;;;5071644;28;20486;-40
2022/06/17 09:48:36;;;;;;;4.83;4.30;;;30.30;42.50;;;;;;5072859;28;20734;-41
2022/06/17 09:51:08;;;;;;;5.03;4.43;;;30.60;40.10;;;;;;5073681;28;20842;-42
2022/06/17 09:53:48;;;;;;;4.10;3.80;;;30.60;39.90;;;;;;5073136;28;20412;-42
2022/06/17 09:56:29;;;;;;;3.83;3.53;;;30.80;40.80;;;;;;5073121;28;20478;-42
2022/06/17 09:59:00;;;;;;;5.23;3.83;;;31.40;41.30;;;;;;5075831;28;20410;-42
2022/06/17 10:01:26;;;;;;;5.07;4.00;;;31.80;39.50;;;;;;5075386;28;20420;-41
2022/06/17 10:03:52;;;;;;;4.33;4.03;;;32.30;39.20;;;;;;5074121;28;20878;-42
2022/06/17 10:06:26;;;;;;;4.37;4.07;;;32.30;38.40;;;;;;5072393;28;20532;-41
2022/06/17 10:08:57;;;;;;;4.20;3.90;;;32.30;37.10;;;;;;5072688;28;20224;-43
2022/06/17 10:11:48;;;;;;;4.27;3.87;;;32.30;37.70;;;;;;5073350;28;20407;-40
2022/06/17 10:14:42;;;;;;;4.83;3.93;;;32.50;37.80;;;;;;5072819;28;20395;-44
2022/06/17 10:20:28;;;;;;;4.33;3.93;;;33.00;35.70;;;;;;5072187;28;20402;-41
2022/06/17 10:23:31;;;;;;;4.87;3.73;;;33.40;36.40;;;;;;5073532;28;20859;-41
2022/06/17 10:26:22;;;;;;;5.50;3.50;;;33.50;35.00;;;;;;5073360;28;20384;-40
2022/06/17 10:28:54;;;;;;;6.67;4.57;;;32.90;35.30;;;;;;5046011;28;20650;-42
2022/06/17 10:31:31;;;;;;;4.10;3.80;;;32.40;35.50;;;;;;5075454;28;20489;-42
2022/06/17 10:34:02;;;;;;;5.30;3.77;;;32.00;36.10;;;;;;5075605;28;20716;-41
2022/06/17 10:36:29;;;;;;;4.07;3.77;;;32.10;36.00;;;;;;5077967;28;20850;-42
2022/06/17 10:38:55;;;;;;;4.33;3.80;;;32.00;36.30;;;;;;5079212;28;20710;-42
2022/06/17 10:41:20;;;;;;;7.20;4.10;;;32.00;35.90;;;;;;5079899;28;20427;-40
2022/06/17 10:43:49;;;;;;;4.00;3.70;;;31.80;35.90;;;;;;5078548;28;20179;-40
2022/06/17 10:46:29;;;;;;;8.43;4.03;;;31.40;35.10;;;;;;5078704;28;20211;-40
2022/06/17 10:49:02;;;;;;;3.87;3.57;;;31.00;36.00;;;;;;5077899;28;20423;-42
2022/06/17 10:51:28;;;;;;;3.93;3.63;;;30.60;36.10;;;;;;5078284;28;20564;-41
2022/06/17 10:53:57;;;;;;;5.23;3.53;;;30.60;36.80;;;;;;5076740;28;20987;-41
2022/06/17 10:56:56;;;;;;;4.30;3.90;;;31.20;36.70;;;;;;5074988;28;20509;-43
2022/06/17 10:59:39;;;;;;;4.83;4.37;;;31.90;36.20;;;;;;5051310;28;20761;-41
2022/06/17 11:02:05;;;;;;;5.13;4.00;;;32.10;35.50;;;;;;5072983;28;20484;-41
2022/06/17 11:04:34;;;;;;;4.33;4.03;;;32.50;34.90;;;;;;5074771;28;20840;-39
2022/06/17 11:07:16;;;;;;;3.93;3.33;;;32.60;35.20;;;;;;5074691;28;20970;-40
2022/06/17 11:10:13;;;;;;;5.03;4.27;;;32.70;34.30;;;;;;5075330;28;20420;-39
2022/06/17 11:12:42;;;;;;;3.83;3.50;;;32.60;33.90;;;;;;5054842;28;20447;-42
2022/06/17 11:15:26;;;;;;;4.10;3.70;;;32.40;34.30;;;;;;5074774;28;20744;-39
2022/06/17 11:18:14;;;;;;;4.20;3.90;;;32.50;34.10;;;;;;5073593;28;20846;-40
2022/06/17 11:20:40;;;;;;;3.77;3.47;;;32.70;34.10;;;;;;5072950;28;20401;-41
2022/06/17 11:23:22;;;;;;;3.73;3.43;;;32.60;33.50;;;;;;5075651;28;20405;-39
2022/06/17 11:25:50;;;;;;;3.80;3.47;;;32.80;33.40;;;;;;5076326;28;20391;-39
2022/06/17 11:28:31;;;;;;;3.77;3.47;;;33.40;33.60;;;;;;5074571;28;20418;-42
2022/06/17 11:31:07;;;;;;;5.40;3.20;;;34.10;33.60;;;;;;5072199;28;20493;-40
2022/06/17 11:33:40;;;;;;;3.90;3.60;;;35.00;32.20;;;;;;5075876;28;20485;-41
2022/06/17 11:36:19;;;;;;;5.10;4.00;;;34.90;31.60;;;;;;5077118;28;20432;-41
2022/06/17 11:38:45;;;;;;;3.80;3.40;;;34.40;31.90;;;;;;5077200;28;20498;-38
2022/06/17 11:41:18;;;;;;;4.07;3.30;;;33.70;32.00;;;;;;5074393;28;20433;-41
2022/06/17 11:43:44;;;;;;;4.20;3.40;;;32.90;33.00;;;;;;5074679;28;20806;-42
2022/06/17 11:46:26;;;;;;;4.77;3.57;;;33.00;33.30;;;;;;5072845;28;20412;-40
2022/06/17 11:49:06;;;;;;;6.80;3.90;;;33.50;32.90;;;;;;5074052;28;20390;-40
2022/06/17 11:51:37;;;;;;;4.90;3.13;;;33.90;32.60;;;;;;5074237;28;20863;-42
2022/06/17 11:54:10;;;;;;;4.63;3.57;;;34.50;32.90;;;;;;5077042;28;20397;-40
2022/06/17 11:56:38;;;;;;;4.50;4.10;;;34.70;31.80;;;;;;5075897;28;20441;-42
2022/06/17 11:59:15;;;;;;;3.67;3.37;;;34.50;31.50;;;;;;5077609;28;20438;-41
2022/06/17 12:01:47;;;;;;;5.53;3.30;;;34.90;32.20;;;;;;5078957;28;20428;-40
2022/06/17 12:04:31;;;;;;;3.80;3.40;;;35.20;31.00;;;;;;5077781;28;20424;-41
2022/06/17 12:06:57;;;;;;;3.63;3.33;;;35.60;31.70;;;;;;5076305;28;20431;-42
2022/06/17 12:09:25;;;;;;;3.67;3.00;;;36.20;30.70;;;;;;5075470;28;20620;-41
2022/06/17 12:11:54;;;;;;;5.00;3.43;;;36.40;30.30;;;;;;5075277;28;20276;-40
2022/06/17 12:14:30;;;;;;;3.70;3.40;;;36.90;30.70;;;;;;5074068;28;20431;-39
2022/06/17 12:16:56;;;;;;;3.93;3.63;;;37.50;30.50;;;;;;5071721;28;20499;-42
2022/06/17 12:19:22;;;;;;;3.53;3.23;;;38.00;30.00;;;;;;5072784;28;20420;-40
2022/06/17 12:21:57;;;;;;;5.27;3.03;;;38.40;29.70;;;;;;5072777;28;20778;-40
2022/06/17 12:24:28;;;;;;;3.27;2.97;;;38.70;29.30;;;;;;5072049;28;20509;-41
2022/06/17 12:27:20;;;;;;;3.40;3.10;;;38.60;27.90;;;;;;5072126;28;20433;-42
2022/06/17 12:29:58;;;;;;;3.27;2.97;;;38.40;28.00;;;;;;5073497;28;20512;-41
2022/06/17 12:33:01;;;;;;;6.07;4.10;;;38.10;28.30;;;;;;5075119;28;20448;-39
2022/06/17 12:35:50;;;;;;;3.70;3.40;;;37.50;28.40;;;;;;5075465;28;20673;-41
2022/06/17 12:38:26;;;;;;;3.90;3.40;;;36.40;29.10;;;;;;5075167;28;20399;-41
2022/06/17 12:41:03;;;;;;;4.00;3.10;;;36.00;29.90;;;;;;5075410;28;20825;-41
2022/06/17 12:43:35;;;;;;;4.50;3.33;;;36.20;29.90;;;;;;5075540;28;20411;-39
2022/06/17 12:46:07;;;;;;;3.60;3.30;;;36.80;30.20;;;;;;5075068;28;20388;-40
2022/06/17 12:53:13;;;;;;;3.93;3.53;;;37.40;29.10;;;;;;5075892;28;20413;-41
2022/06/17 12:54:46;;;;;;;4.30;3.67;;;37.30;29.10;;;;;;5073062;28;20909;-41
2022/06/17 12:57:30;;;;;;;4.80;3.70;;;36.70;29.70;;;;;;5074104;28;20519;-41
2022/06/17 13:00:09;;;;;;;4.17;3.77;;;36.50;29.70;;;;;;5076143;28;20454;-39
2022/06/17 13:02:53;;;;;;;3.80;3.50;;;36.20;29.50;;;;;;5074864;28;20414;-40
2022/06/17 13:05:25;;;;;;;5.30;3.17;;;35.70;29.70;;;;;;5073877;28;20400;-40
2022/06/17 13:07:51;;;;;;;3.73;3.43;;;34.80;30.20;;;;;;5075423;28;20406;-40
2022/06/17 13:10:41;;;;;;;4.00;3.70;;;34.60;30.90;;;;;;5076418;28;20401;-39
2022/06/17 13:13:09;;;;;;;4.63;4.23;;;34.50;30.10;;;;;;5075765;28;20430;-41
2022/06/17 13:15:41;;;;;;;3.43;3.13;;;33.90;30.90;;;;;;5076266;28;20408;-40
2022/06/17 13:18:10;;;;;;;5.17;3.90;;;34.30;31.00;;;;;;5075250;28;20820;-39
2022/06/17 13:20:39;;;;;;;6.00;3.80;;;35.00;31.00;;;;;;5073545;28;20390;-40
2022/06/17 13:23:29;;;;;;;3.60;3.07;;;35.30;30.00;;;;;;5072959;28;20424;-40